Ar Rutbah, Iraq
Current Conditions -  °F | °C
As of 7:55 PM on Thursday 27 Nov 2014 (Local Time) from KQAJ Reporting Station
Broken Clouds Broken Clouds  
Wind Chill: 63°   Ceiling: 10000
Heat Index: 63°   Visibility: 6mi
Dew Point: 56°   Wind: 3mph
Humidity: 77%   Direction: 100°E
Pressure: 30.07"   Gusts: NA
Location:  33.04°N, 40.3°E
Report Text: KQAJ 271655Z 10003KT 9999 BKN100 17/13 A3007 RMK SLP182 T01740134
Loading
Personal Weather Stations






























Interactive Weather Map New forecast layout! Learn more

10-Day Weather Forecast

Advertisements
Track Severe Weather on mobile